Time;durP1;ratioP1;P1;durP2;ratioP2;P2;SDS_P1;SDS_P2;PMS_P1;PMS_P2;Temp;Humidity;BMP_temperature;BMP_pressure;BME280_temperature;BME280_humidity;BME280_pressure;Samples;Min_cycle;Max_cycle;Signal;HPM_P1;HPM_P2
2021/10/24 11:07:38;;;;;;;4.27;1.40;;;12.40;62.10;;;;;;5011297;22;1920266;-80
2021/10/24 11:10:10;;;;;;;2.83;1.40;;;12.30;64.00;;;;;;5070657;28;20878;-79
2021/10/24 11:25:53;;;;;;;4.90;1.10;;;12.60;65.90;;;;;;5031961;28;20406;-80
2021/10/24 11:28:25;;;;;;;4.32;1.20;;;12.60;66.40;;;;;;5030719;28;20395;-80
2021/10/24 11:31:00;;;;;;;7.47;1.50;;;12.80;64.80;;;;;;5031901;28;20441;-80
2021/10/24 11:33:26;;;;;;;3.13;1.52;;;13.30;60.90;;;;;;5014443;28;20832;-79
2021/10/24 11:35:52;;;;;;;3.90;1.20;;;13.10;62.90;;;;;;5030364;28;20395;-79
2021/10/24 11:38:18;;;;;;;1.60;1.10;;;13.20;63.60;;;;;;5031398;28;20497;-80
2021/10/24 11:40:46;;;;;;;2.90;1.20;;;13.00;64.90;;;;;;5013771;28;20880;-80
2021/10/24 11:43:15;;;;;;;2.10;1.08;;;13.40;60.40;;;;;;5031785;28;20379;-78
2021/10/24 11:45:44;;;;;;;4.00;1.57;;;13.50;61.00;;;;;;5014087;28;20404;-80
2021/10/24 11:48:18;;;;;;;3.08;1.23;;;13.50;61.00;;;;;;5031723;28;20390;-80
2021/10/24 11:50:47;;;;;;;2.78;1.40;;;13.60;60.00;;;;;;5031701;28;20375;-84
2021/10/24 11:53:40;;;;;;;2.40;1.20;;;13.60;57.10;;;;;;5031553;28;20421;-80
2021/10/24 12:01:30;;;;;;;3.03;1.17;;;13.60;58.60;;;;;;5031331;28;20395;-76
2021/10/24 12:04:05;;;;;;;1.67;1.00;;;13.60;57.90;;;;;;5014305;28;20394;-78
2021/10/24 12:07:01;;;;;;;2.72;1.95;;;13.70;56.20;;;;;;5031186;28;20429;-75
2021/10/24 12:09:30;;;;;;;5.15;1.00;;;13.90;62.10;;;;;;5031219;28;20402;-75
2021/10/24 12:12:14;;;;;;;2.10;1.00;;;13.90;60.70;;;;;;5013110;28;20383;-77
2021/10/24 12:14:55;;;;;;;3.67;1.38;;;13.90;55.80;;;;;;5013432;28;20713;-76
2021/10/24 12:17:27;;;;;;;3.22;0.85;;;13.90;57.20;;;;;;5031286;28;20441;-78
2021/10/24 12:20:14;;;;;;;2.40;0.80;;;13.90;56.90;;;;;;5031119;28;20398;-85
2021/10/24 12:22:45;;;;;;;3.92;1.10;;;14.10;55.60;;;;;;5029907;28;20398;-76
2021/10/24 12:25:18;;;;;;;3.40;1.20;;;14.30;53.80;;;;;;5013320;28;20741;-77
2021/10/24 12:28:04;;;;;;;3.40;1.00;;;14.30;53.60;;;;;;5031168;28;20821;-75
2021/10/24 12:30:32;;;;;;;3.90;1.33;;;14.30;55.00;;;;;;5031190;28;20387;-76
2021/10/24 12:33:01;;;;;;;5.32;1.00;;;14.40;54.20;;;;;;5013201;28;20402;-76
2021/10/24 12:35:27;;;;;;;1.67;0.98;;;14.40;52.70;;;;;;5031295;28;20383;-75
2021/10/24 12:38:00;;;;;;;3.63;1.05;;;14.40;56.20;;;;;;5030865;28;20378;-75
2021/10/24 12:40:29;;;;;;;2.40;1.10;;;14.50;56.60;;;;;;5031231;28;20414;-74
2021/10/24 12:43:08;;;;;;;4.38;1.23;;;14.40;56.60;;;;;;5030795;28;20379;-74
2021/10/24 12:46:11;;;;;;;2.15;1.10;;;14.70;52.50;;;;;;5031259;28;20379;-75
2021/10/24 12:48:43;;;;;;;4.85;0.73;;;14.50;54.40;;;;;;5026816;28;20482;-76
2021/10/24 12:51:22;;;;;;;4.75;0.93;;;14.60;54.80;;;;;;5031711;28;20386;-75
2021/10/24 12:53:48;;;;;;;2.30;0.90;;;14.60;54.10;;;;;;5035269;28;20390;-76
2021/10/24 12:56:14;;;;;;;1.75;0.95;;;14.60;53.90;;;;;;5034829;28;20389;-74
2021/10/24 12:58:39;;;;;;;2.67;0.90;;;14.60;53.50;;;;;;5034549;28;20770;-76
2021/10/24 13:01:05;;;;;;;2.97;1.00;;;14.50;53.50;;;;;;5034749;28;20411;-74
2021/10/24 13:03:31;;;;;;;2.63;1.10;;;14.50;51.00;;;;;;5034833;28;20454;-76
2021/10/24 13:05:57;;;;;;;1.63;1.08;;;14.50;53.80;;;;;;5034703;28;20379;-75
2021/10/24 13:08:23;;;;;;;3.70;1.00;;;14.50;52.90;;;;;;5034539;28;20890;-76
2021/10/24 13:10:48;;;;;;;2.77;1.20;;;14.80;52.20;;;;;;5034813;28;20501;-77
2021/10/24 13:13:14;;;;;;;1.40;0.90;;;14.70;53.50;;;;;;5034435;28;20444;-74
2021/10/24 13:15:43;;;;;;;2.15;0.90;;;14.80;54.10;;;;;;5017281;28;20926;-75
2021/10/24 13:18:13;;;;;;;2.00;0.80;;;14.90;54.10;;;;;;5033982;28;20902;-75
2021/10/24 13:20:40;;;;;;;0.80;0.80;;;14.80;53.20;;;;;;5033282;28;20442;-76
2021/10/24 13:23:06;;;;;;;2.15;1.00;;;14.90;53.10;;;;;;5016440;28;20398;-75
2021/10/24 13:25:32;;;;;;;4.17;1.10;;;14.80;53.60;;;;;;5033332;28;20391;-75
2021/10/24 13:27:58;;;;;;;1.90;1.17;;;14.80;53.10;;;;;;5032506;28;20906;-76
2021/10/24 13:30:25;;;;;;;4.20;1.20;;;14.70;53.50;;;;;;5034230;28;20852;-76
2021/10/24 13:32:51;;;;;;;5.15;1.30;;;14.70;51.50;;;;;;5016267;28;20390;-75
2021/10/24 13:35:22;;;;;;;2.70;1.08;;;14.70;52.50;;;;;;5033904;28;20383;-75
2021/10/24 13:37:48;;;;;;;1.45;0.90;;;14.70;55.10;;;;;;5034276;28;20760;-75
2021/10/24 13:40:15;;;;;;;1.63;0.90;;;14.70;54.20;;;;;;5016036;28;20442;-75
2021/10/24 13:42:41;;;;;;;2.58;1.23;;;14.50;54.50;;;;;;5016582;28;20402;-75
2021/10/24 13:45:09;;;;;;;3.20;1.17;;;14.50;56.90;;;;;;5015985;28;20426;-76
2021/10/24 13:47:35;;;;;;;2.20;1.00;;;14.50;55.10;;;;;;5034202;28;20390;-74
2021/10/24 13:50:01;;;;;;;3.85;1.00;;;14.50;54.10;;;;;;5015867;28;20462;-75
2021/10/24 13:52:27;;;;;;;3.28;1.08;;;14.40;54.60;;;;;;5032858;28;20379;-75
2021/10/24 13:54:52;;;;;;;3.17;1.20;;;14.50;55.40;;;;;;5033560;28;20437;-75
2021/10/24 13:57:18;;;;;;;1.67;1.10;;;14.40;55.90;;;;;;5034307;28;20387;-76
2021/10/24 13:59:45;;;;;;;1.98;0.90;;;14.30;56.00;;;;;;5015733;28;20414;-75
2021/10/24 14:02:11;;;;;;;6.03;1.40;;;14.30;57.90;;;;;;5015562;28;20408;-75
2021/10/24 14:04:38;;;;;;;3.23;1.30;;;14.10;54.50;;;;;;5015711;28;20379;-76
2021/10/24 14:07:03;;;;;;;1.50;0.88;;;14.20;55.40;;;;;;5033568;28;20727;-76
2021/10/24 14:09:30;;;;;;;1.23;1.00;;;14.10;56.90;;;;;;5033554;28;20384;-75
2021/10/24 14:11:57;;;;;;;3.22;1.15;;;14.10;55.60;;;;;;5033347;28;20392;-75
2021/10/24 14:14:22;;;;;;;3.83;1.10;;;14.00;55.00;;;;;;5033555;28;20798;-76
2021/10/24 14:16:48;;;;;;;1.50;1.20;;;14.00;55.90;;;;;;5033327;28;20466;-74
2021/10/24 14:19:14;;;;;;;2.07;1.07;;;13.90;57.80;;;;;;5033461;28;20407;-74
2021/10/24 14:21:40;;;;;;;2.77;1.00;;;14.00;57.40;;;;;;5033140;28;20427;-75
2021/10/24 14:24:06;;;;;;;2.07;1.00;;;13.90;58.70;;;;;;5015474;28;20393;-75
2021/10/24 14:26:31;;;;;;;4.07;1.10;;;13.80;57.10;;;;;;5033454;28;20716;-75
2021/10/24 14:28:58;;;;;;;2.00;1.00;;;13.60;57.00;;;;;;5015539;28;20402;-76
2021/10/24 14:31:25;;;;;;;1.85;1.00;;;13.70;58.20;;;;;;5031596;28;20390;-75
2021/10/24 14:33:50;;;;;;;1.98;1.13;;;13.50;58.00;;;;;;5033041;28;20693;-75
2021/10/24 14:36:16;;;;;;;3.00;1.30;;;13.60;56.80;;;;;;5033171;28;20386;-75
2021/10/24 14:38:42;;;;;;;1.73;0.93;;;13.70;56.10;;;;;;5014877;28;20383;-75
2021/10/24 14:41:08;;;;;;;3.28;1.02;;;13.60;58.90;;;;;;5031566;28;20437;-75
2021/10/24 14:43:34;;;;;;;2.15;1.30;;;13.40;59.70;;;;;;5015100;28;20391;-75
2021/10/24 14:46:00;;;;;;;3.13;1.10;;;13.50;58.00;;;;;;5032940;28;20758;-75
2021/10/24 14:48:26;;;;;;;2.80;1.10;;;13.60;59.20;;;;;;5014741;28;20575;-75
2021/10/24 14:50:52;;;;;;;1.30;1.10;;;13.50;59.70;;;;;;5032868;28;20391;-75
2021/10/24 14:53:17;;;;;;;3.50;1.38;;;13.40;59.60;;;;;;5014887;28;20382;-75
2021/10/24 14:55:43;;;;;;;3.15;1.60;;;13.30;58.00;;;;;;5032764;28;20383;-75
2021/10/24 14:58:11;;;;;;;5.33;1.40;;;13.40;57.80;;;;;;5032563;28;20892;-75
2021/10/24 15:00:37;;;;;;;6.20;1.83;;;13.30;57.20;;;;;;5032251;28;20409;-75
2021/10/24 15:03:03;;;;;;;6.53;1.40;;;13.30;58.00;;;;;;5032830;28;20379;-75
2021/10/24 15:05:29;;;;;;;2.80;1.50;;;13.40;54.90;;;;;;5032354;28;20379;-76
2021/10/24 15:07:55;;;;;;;1.40;0.90;;;13.40;56.00;;;;;;5032718;28;20466;-74
2021/10/24 15:10:22;;;;;;;3.45;1.42;;;13.40;54.40;;;;;;5014373;28;20511;-75
2021/10/24 15:12:48;;;;;;;3.58;1.58;;;13.40;57.00;;;;;;5014335;28;20724;-75
2021/10/24 15:15:14;;;;;;;3.65;1.80;;;13.20;57.90;;;;;;5031821;28;20437;-75
2021/10/24 15:17:43;;;;;;;5.43;1.50;;;13.10;59.80;;;;;;5032583;28;20395;-74
2021/10/24 15:22:55;;;;;;;3.47;1.70;;;12.90;60.40;;;;;;5032183;28;20382;-75
2021/10/24 15:25:20;;;;;;;4.97;1.20;;;12.80;60.00;;;;;;5014263;28;20391;-75
2021/10/24 15:27:46;;;;;;;2.63;1.40;;;12.80;59.00;;;;;;5031959;28;20406;-74
2021/10/24 15:30:11;;;;;;;1.92;1.20;;;12.80;57.00;;;;;;5032272;28;20441;-74
2021/10/24 15:32:37;;;;;;;2.77;1.43;;;13.10;56.00;;;;;;5031808;28;20407;-74
2021/10/24 15:35:03;;;;;;;1.63;1.03;;;13.00;56.20;;;;;;5031301;28;20382;-75
2021/10/24 15:37:28;;;;;;;2.78;1.55;;;12.90;57.90;;;;;;5031618;28;20414;-75
2021/10/24 15:39:54;;;;;;;4.40;1.10;;;12.70;58.60;;;;;;5032013;28;20407;-74
2021/10/24 15:42:20;;;;;;;4.28;1.40;;;12.50;59.20;;;;;;5031555;28;20474;-75
2021/10/24 15:44:46;;;;;;;3.63;1.40;;;12.60;59.60;;;;;;5031985;28;20441;-75
2021/10/24 15:47:12;;;;;;;2.08;1.10;;;12.40;60.60;;;;;;5031749;28;20375;-75
2021/10/24 15:49:37;;;;;;;2.88;1.48;;;12.30;61.60;;;;;;5031898;28;20384;-75
2021/10/24 15:52:04;;;;;;;2.70;1.20;;;12.10;63.60;;;;;;5031389;28;20380;-75
2021/10/24 15:54:29;;;;;;;4.50;1.88;;;11.80;67.00;;;;;;5031580;28;20856;-75
2021/10/24 15:56:55;;;;;;;4.70;1.23;;;11.70;66.60;;;;;;5013549;28;20398;-75
2021/10/24 15:59:21;;;;;;;2.75;1.38;;;11.60;68.30;;;;;;5031416;28;20403;-75
2021/10/24 16:01:47;;;;;;;4.78;1.70;;;11.50;66.70;;;;;;5031452;28;20390;-75
2021/10/24 16:04:12;;;;;;;2.23;1.10;;;11.60;64.60;;;;;;5013528;28;20391;-76
2021/10/24 16:06:38;;;;;;;2.20;1.23;;;11.90;63.30;;;;;;5031720;28;20447;-76
2021/10/24 16:09:06;;;;;;;2.00;1.50;;;11.90;63.10;;;;;;5030590;28;20429;-77
2021/10/24 16:11:31;;;;;;;1.67;1.23;;;11.80;64.90;;;;;;5013503;28;20394;-76
2021/10/24 16:13:57;;;;;;;3.88;1.48;;;11.60;66.00;;;;;;5031275;28;20379;-76
2021/10/24 16:16:23;;;;;;;1.60;1.10;;;11.50;67.30;;;;;;5013754;28;20461;-76
2021/10/24 16:18:48;;;;;;;4.80;1.70;;;11.30;68.50;;;;;;5031247;28;20381;-78
2021/10/24 16:21:15;;;;;;;4.15;1.50;;;11.10;69.60;;;;;;5013856;28;20856;-76
2021/10/24 16:23:41;;;;;;;6.28;2.55;;;11.00;67.50;;;;;;5031055;28;20391;-78
2021/10/24 16:26:09;;;;;;;5.80;2.30;;;11.30;66.70;;;;;;5013201;28;20418;-77
2021/10/24 16:28:35;;;;;;;4.40;2.15;;;11.30;66.10;;;;;;5031262;28;20490;-77
2021/10/24 16:31:00;;;;;;;7.10;3.35;;;11.30;68.30;;;;;;5013278;28;20385;-77
2021/10/24 16:33:26;;;;;;;8.53;2.93;;;11.00;69.20;;;;;;5031227;28;20367;-77
2021/10/24 16:35:52;;;;;;;5.67;2.37;;;10.90;69.50;;;;;;5031082;28;20431;-77
2021/10/24 16:38:20;;;;;;;5.18;2.22;;;11.00;68.80;;;;;;5030885;28;20851;-76
2021/10/24 16:40:46;;;;;;;4.30;2.08;;;11.00;68.90;;;;;;5030975;28;20407;-76
2021/10/24 16:43:11;;;;;;;3.67;2.50;;;11.00;69.30;;;;;;5030636;28;20704;-77
2021/10/24 16:45:38;;;;;;;3.80;2.00;;;10.80;69.40;;;;;;5026096;28;20383;-77
2021/10/24 16:48:04;;;;;;;5.15;2.00;;;10.80;69.90;;;;;;5021586;28;20388;-77
2021/10/24 16:50:30;;;;;;;3.23;1.97;;;10.70;70.90;;;;;;5030985;28;20422;-77
2021/10/24 16:52:56;;;;;;;3.42;2.00;;;10.60;71.80;;;;;;5030992;28;20470;-76
2021/10/24 16:55:22;;;;;;;3.63;1.80;;;10.40;72.40;;;;;;5030894;28;20545;-76
2021/10/24 16:57:48;;;;;;;4.23;1.80;;;10.40;72.00;;;;;;5012917;28;20429;-75
2021/10/24 17:00:14;;;;;;;6.50;1.90;;;10.40;73.20;;;;;;5013285;28;20741;-76
2021/10/24 17:02:40;;;;;;;9.55;2.90;;;10.30;73.20;;;;;;5030654;28;20707;-76
2021/10/24 17:05:07;;;;;;;5.77;1.87;;;10.20;73.20;;;;;;5013275;28;20845;-77
2021/10/24 17:07:34;;;;;;;5.55;2.03;;;10.30;72.70;;;;;;5024758;28;20848;-77
2021/10/24 17:09:59;;;;;;;6.82;1.95;;;10.30;73.30;;;;;;5013755;28;20385;-77
2021/10/24 17:12:25;;;;;;;4.43;2.00;;;10.30;73.70;;;;;;5021302;28;20391;-77
2021/10/24 17:14:55;;;;;;;3.10;2.00;;;10.10;74.60;;;;;;5013140;28;20391;-77
2021/10/24 17:17:20;;;;;;;5.65;2.00;;;10.10;74.90;;;;;;5012313;28;20382;-77
2021/10/24 17:19:47;;;;;;;7.55;3.20;;;9.90;75.20;;;;;;5030304;28;20414;-77
2021/10/24 17:22:17;;;;;;;3.50;2.03;;;9.90;75.40;;;;;;5030670;28;20375;-78
2021/10/24 17:24:43;;;;;;;3.85;2.25;;;9.80;75.90;;;;;;5030658;28;20744;-77
2021/10/24 17:27:10;;;;;;;3.50;1.97;;;9.90;75.00;;;;;;5030785;28;20375;-77
2021/10/24 17:29:35;;;;;;;3.17;1.80;;;9.80;75.80;;;;;;5012694;28;21100;-77
2021/10/24 17:32:01;;;;;;;5.00;1.87;;;9.80;75.70;;;;;;5013141;28;20441;-77
2021/10/24 17:34:28;;;;;;;2.50;1.73;;;9.80;75.30;;;;;;5030388;28;20856;-78
2021/10/24 17:36:53;;;;;;;2.85;2.05;;;9.70;76.70;;;;;;5032337;28;20383;-77
2021/10/24 17:39:19;;;;;;;4.95;1.85;;;9.80;76.40;;;;;;5034013;28;20784;-77
2021/10/24 17:41:44;;;;;;;4.22;2.28;;;9.80;76.00;;;;;;5017634;28;20846;-78
2021/10/24 17:44:10;;;;;;;5.27;2.20;;;9.80;76.00;;;;;;5014241;28;20381;-77
2021/10/24 17:46:35;;;;;;;6.33;2.20;;;9.60;76.80;;;;;;5014441;28;20377;-76
2021/10/24 17:49:01;;;;;;;4.47;2.20;;;9.40;78.00;;;;;;5013839;28;20389;-78
2021/10/24 17:51:27;;;;;;;5.18;2.40;;;9.50;77.50;;;;;;5014184;28;20373;-79
2021/10/24 17:53:53;;;;;;;6.95;2.65;;;9.90;75.40;;;;;;5014225;28;20387;-76
2021/10/24 17:56:19;;;;;;;5.95;2.78;;;10.00;75.20;;;;;;4996226;28;20393;-77
2021/10/24 17:58:45;;;;;;;6.87;2.70;;;10.00;75.30;;;;;;5014479;28;20380;-76
2021/10/24 18:01:12;;;;;;;4.88;2.30;;;9.80;76.40;;;;;;4996235;28;20388;-77
2021/10/24 18:03:39;;;;;;;3.55;1.95;;;10.10;75.20;;;;;;5014141;28;20480;-78
2021/10/24 18:06:05;;;;;;;2.92;2.20;;;10.00;75.60;;;;;;5013694;28;20385;-78
2021/10/24 18:08:31;;;;;;;3.75;2.00;;;9.90;76.10;;;;;;4996520;28;20454;-77
2021/10/24 18:10:58;;;;;;;5.27;2.20;;;9.90;76.50;;;;;;5013667;28;20428;-76
2021/10/24 18:13:23;;;;;;;6.20;2.55;;;9.90;75.50;;;;;;4996307;28;20455;-78
2021/10/24 18:15:50;;;;;;;3.78;2.10;;;10.30;74.20;;;;;;4996107;28;20861;-77
2021/10/24 18:18:17;;;;;;;8.18;2.20;;;10.10;74.50;;;;;;5013770;28;20389;-77
2021/10/24 18:20:42;;;;;;;5.50;2.00;;;10.30;73.70;;;;;;5013533;28;20409;-77
2021/10/24 18:23:09;;;;;;;4.27;2.00;;;10.20;74.30;;;;;;5018788;28;20397;-78
2021/10/24 18:25:35;;;;;;;3.33;2.05;;;10.10;74.30;;;;;;5006386;28;20387;-77
2021/10/24 18:28:01;;;;;;;4.82;2.20;;;10.10;75.00;;;;;;5022910;28;20781;-78
2021/10/24 18:30:27;;;;;;;7.07;2.35;;;9.90;75.30;;;;;;5024956;28;20387;-77
2021/10/24 18:32:53;;;;;;;5.50;1.80;;;9.90;75.40;;;;;;5021573;28;20803;-77
2021/10/24 18:35:20;;;;;;;3.53;1.90;;;9.90;74.50;;;;;;5027493;28;20389;-77
2021/10/24 18:37:49;;;;;;;4.00;2.00;;;9.90;75.40;;;;;;5021717;28;20388;-77
2021/10/24 18:40:14;;;;;;;6.88;2.28;;;10.00;74.20;;;;;;5022307;28;20530;-79
2021/10/24 18:42:43;;;;;;;3.40;2.00;;;10.10;73.70;;;;;;5005234;28;20479;-78
2021/10/24 18:45:10;;;;;;;4.65;2.28;;;10.00;74.20;;;;;;5004108;28;20885;-76
2021/10/24 18:47:37;;;;;;;3.73;2.10;;;10.10;73.50;;;;;;5022082;28;20391;-75
2021/10/24 18:50:04;;;;;;;5.20;2.05;;;10.00;73.70;;;;;;5023086;28;20840;-76
2021/10/24 18:52:29;;;;;;;3.58;2.30;;;10.00;74.10;;;;;;5005756;28;20439;-75
2021/10/24 18:54:56;;;;;;;7.03;2.40;;;10.10;72.80;;;;;;5021548;28;20396;-78
2021/10/24 18:57:25;;;;;;;4.13;2.20;;;10.20;73.10;;;;;;5022229;28;20770;-76
2021/10/24 18:59:51;;;;;;;4.47;2.15;;;10.10;73.20;;;;;;5023199;28;20403;-76
2021/10/24 19:02:17;;;;;;;5.03;2.70;;;10.00;73.50;;;;;;5004467;28;20908;-76
2021/10/24 19:04:42;;;;;;;5.60;2.35;;;10.00;73.50;;;;;;5022778;28;20694;-76
2021/10/24 19:07:08;;;;;;;4.97;2.30;;;9.90;74.20;;;;;;5020137;28;20384;-77
2021/10/24 19:09:37;;;;;;;3.90;2.20;;;9.90;74.40;;;;;;5020201;28;20387;-77
2021/10/24 19:12:08;;;;;;;10.63;4.43;;;9.90;74.10;;;;;;5022580;28;20418;-77
2021/10/24 19:14:34;;;;;;;6.20;2.70;;;9.80;74.60;;;;;;5015209;28;20722;-77
2021/10/24 19:16:59;;;;;;;5.80;2.30;;;9.90;74.00;;;;;;5012975;28;20385;-77
2021/10/24 19:19:25;;;;;;;4.67;2.10;;;9.80;74.50;;;;;;5020194;28;20405;-78
2021/10/24 19:21:51;;;;;;;4.80;2.03;;;9.80;74.90;;;;;;5003151;28;20773;-77
2021/10/24 19:24:16;;;;;;;5.23;2.60;;;9.70;75.40;;;;;;5022847;28;20380;-77
2021/10/24 19:26:42;;;;;;;4.93;2.30;;;9.80;74.50;;;;;;5023741;28;20404;-77
2021/10/24 19:29:08;;;;;;;6.13;2.50;;;9.70;75.20;;;;;;5022060;28;20391;-78
2021/10/24 19:31:34;;;;;;;6.53;3.08;;;9.60;76.20;;;;;;5020032;28;20385;-79
2021/10/24 19:34:00;;;;;;;5.40;2.30;;;9.60;75.60;;;;;;5012399;28;20373;-77
2021/10/24 19:36:26;;;;;;;4.03;2.50;;;9.70;75.30;;;;;;4994413;28;20381;-77
2021/10/24 19:38:52;;;;;;;6.20;2.65;;;9.70;75.00;;;;;;5013863;28;20377;-78
2021/10/24 19:41:18;;;;;;;6.07;2.50;;;9.60;75.20;;;;;;5023270;28;20947;-79
2021/10/24 19:43:44;;;;;;;6.68;2.60;;;9.70;75.20;;;;;;5032020;28;20462;-77
2021/10/24 19:46:09;;;;;;;6.07;2.37;;;9.60;75.80;;;;;;5031818;28;20541;-78
2021/10/24 19:48:36;;;;;;;4.87;2.77;;;9.50;76.20;;;;;;5023555;28;20492;-78
2021/10/24 19:51:02;;;;;;;7.07;2.70;;;9.60;75.30;;;;;;5022707;28;20378;-77
2021/10/24 19:53:28;;;;;;;5.90;2.60;;;9.60;76.10;;;;;;5003097;28;20389;-77
2021/10/24 19:55:54;;;;;;;8.02;2.90;;;9.40;76.10;;;;;;5029078;28;20466;-75
2021/10/24 19:58:21;;;;;;;7.25;2.88;;;9.50;75.90;;;;;;5013735;28;20789;-77
2021/10/24 20:00:49;;;;;;;7.70;2.77;;;9.50;75.80;;;;;;5031416;28;20399;-77
2021/10/24 20:03:15;;;;;;;5.10;2.47;;;9.40;76.10;;;;;;5031405;28;20395;-77
2021/10/24 20:05:40;;;;;;;7.57;2.90;;;9.40;76.30;;;;;;5031761;28;20474;-76
2021/10/24 20:08:07;;;;;;;7.03;2.80;;;9.40;75.90;;;;;;5031412;28;20862;-77
2021/10/24 20:10:34;;;;;;;5.80;2.72;;;9.60;75.40;;;;;;5031709;28;20389;-77
2021/10/24 20:12:59;;;;;;;9.63;3.60;;;9.50;76.30;;;;;;5031097;28;20708;-78
2021/10/24 20:15:25;;;;;;;6.73;2.60;;;9.40;76.30;;;;;;5031603;28;20471;-77
2021/10/24 20:17:51;;;;;;;5.60;2.87;;;9.40;76.40;;;;;;5031145;28;20833;-78
2021/10/24 20:20:17;;;;;;;10.77;3.17;;;9.40;76.00;;;;;;5030900;28;20466;-77
2021/10/24 20:22:43;;;;;;;6.05;2.90;;;9.40;76.50;;;;;;5031501;28;20386;-76
2021/10/24 20:25:09;;;;;;;7.07;2.93;;;9.40;76.50;;;;;;5031131;28;20708;-77
2021/10/24 20:27:34;;;;;;;6.85;3.22;;;9.40;76.50;;;;;;5031286;28;20859;-76
2021/10/24 20:30:00;;;;;;;7.13;3.20;;;9.30;76.70;;;;;;5013316;28;20928;-77
2021/10/24 20:32:25;;;;;;;5.17;2.83;;;9.20;77.20;;;;;;5031226;28;20404;-75
2021/10/24 20:34:53;;;;;;;4.97;2.90;;;9.10;78.00;;;;;;5013311;28;20457;-77
2021/10/24 20:37:19;;;;;;;6.53;2.92;;;9.10;77.60;;;;;;5031367;28;20386;-76
2021/10/24 20:39:44;;;;;;;5.37;2.83;;;9.00;77.80;;;;;;5030693;28;20429;-77
2021/10/24 20:42:11;;;;;;;7.38;3.28;;;9.10;77.70;;;;;;5031172;28;20379;-77
2021/10/24 20:44:36;;;;;;;6.15;3.35;;;9.10;78.00;;;;;;5013073;28;20383;-76
2021/10/24 20:47:02;;;;;;;7.27;3.33;;;9.00;78.00;;;;;;5031222;28;20386;-77
2021/10/24 20:49:29;;;;;;;5.37;3.00;;;9.00;78.20;;;;;;5030835;28;20413;-76
2021/10/24 20:51:54;;;;;;;11.70;3.00;;;9.00;78.20;;;;;;5030696;28;20850;-76
2021/10/24 20:54:20;;;;;;;7.20;3.00;;;9.00;78.20;;;;;;5031066;28;20474;-76
2021/10/24 20:56:45;;;;;;;7.03;3.07;;;9.00;78.20;;;;;;5030616;28;20484;-75
2021/10/24 20:59:13;;;;;;;8.60;3.40;;;8.90;78.60;;;;;;5030961;28;20406;-77
2021/10/24 21:01:39;;;;;;;7.50;2.90;;;9.00;78.40;;;;;;5030841;28;20437;-76
2021/10/24 21:04:07;;;;;;;6.72;3.00;;;8.90;78.70;;;;;;5030886;28;20415;-77
2021/10/24 21:06:32;;;;;;;7.75;3.17;;;8.90;78.70;;;;;;5030502;28;20407;-78
2021/10/24 21:08:58;;;;;;;5.88;2.92;;;8.80;78.90;;;;;;5031003;28;20414;-76
2021/10/24 21:11:24;;;;;;;8.00;3.33;;;8.90;78.70;;;;;;5031665;28;20751;-77
2021/10/24 21:13:50;;;;;;;6.47;3.03;;;8.90;78.50;;;;;;5017257;28;20387;-76
2021/10/24 21:16:17;;;;;;;6.47;2.70;;;8.90;78.60;;;;;;5030673;28;20829;-77
2021/10/24 21:18:43;;;;;;;5.82;2.90;;;8.90;78.60;;;;;;5014822;28;20381;-76
2021/10/24 21:21:09;;;;;;;7.53;3.30;;;8.80;78.90;;;;;;5020635;28;20914;-76
2021/10/24 21:23:35;;;;;;;6.70;3.38;;;8.70;79.40;;;;;;5021766;28;20409;-77
2021/10/24 21:26:01;;;;;;;7.03;3.20;;;8.70;79.80;;;;;;5033854;28;20383;-77
2021/10/24 21:28:27;;;;;;;7.83;2.87;;;8.70;79.80;;;;;;5034391;28;20461;-77
2021/10/24 21:30:53;;;;;;;10.48;4.25;;;8.60;79.80;;;;;;5034130;28;20425;-76
2021/10/24 21:33:19;;;;;;;5.73;3.00;;;8.60;79.90;;;;;;5034243;28;20383;-77
2021/10/24 21:35:45;;;;;;;8.63;3.20;;;8.40;80.60;;;;;;5029603;28;20396;-77
2021/10/24 21:38:11;;;;;;;9.02;3.53;;;8.40;80.80;;;;;;5014165;28;20392;-76
2021/10/24 21:40:37;;;;;;;5.47;3.07;;;8.30;81.20;;;;;;5023167;28;20411;-77
2021/10/24 21:43:04;;;;;;;5.90;3.17;;;8.30;80.90;;;;;;5034115;28;20383;-78
2021/10/24 21:45:30;;;;;;;6.05;3.03;;;8.30;80.90;;;;;;5002700;28;20770;-77
2021/10/24 21:47:57;;;;;;;6.00;3.40;;;8.30;81.30;;;;;;5020209;28;20383;-78
2021/10/24 21:50:23;;;;;;;6.00;3.10;;;8.30;81.10;;;;;;5017081;28;20435;-77
2021/10/24 21:52:49;;;;;;;6.90;3.25;;;8.30;81.00;;;;;;5014415;28;20499;-76
2021/10/24 21:55:14;;;;;;;7.50;3.42;;;8.30;81.00;;;;;;5013907;28;20925;-78
2021/10/24 21:57:40;;;;;;;6.17;3.40;;;8.30;81.70;;;;;;5014517;28;20381;-77
2021/10/24 22:00:11;;;;;;;5.73;3.10;;;8.20;81.10;;;;;;5013916;28;20439;-78
2021/10/24 22:02:38;;;;;;;6.93;3.38;;;8.10;81.90;;;;;;5014478;28;20389;-77
2021/10/24 22:05:04;;;;;;;5.17;2.67;;;7.90;82.30;;;;;;4996290;28;20385;-77
2021/10/24 22:07:29;;;;;;;4.72;2.90;;;8.00;82.50;;;;;;5014240;28;20468;-77
2021/10/24 22:09:55;;;;;;;4.80;3.03;;;8.00;82.50;;;;;;5013763;28;20651;-77
2021/10/24 22:12:20;;;;;;;7.77;3.10;;;7.90;82.80;;;;;;5013884;28;20842;-77
2021/10/24 22:14:47;;;;;;;7.80;2.90;;;7.90;82.60;;;;;;5013669;28;20388;-77
2021/10/24 22:17:13;;;;;;;6.07;3.30;;;7.90;82.60;;;;;;5013444;28;20468;-78
2021/10/24 22:19:39;;;;;;;9.80;3.10;;;7.70;83.50;;;;;;4996193;28;20504;-76
2021/10/24 22:22:06;;;;;;;9.43;2.97;;;7.80;83.10;;;;;;4995560;28;20393;-78
2021/10/24 22:24:32;;;;;;;8.20;2.67;;;7.80;83.40;;;;;;5013823;28;20377;-78
2021/10/24 22:26:58;;;;;;;5.13;2.85;;;7.80;83.10;;;;;;5013831;28;20426;-77
2021/10/24 22:29:23;;;;;;;4.10;2.70;;;7.80;83.30;;;;;;5013923;28;20408;-78
2021/10/24 22:31:49;;;;;;;5.33;2.80;;;7.70;83.30;;;;;;5013220;28;20701;-76
2021/10/24 22:34:15;;;;;;;7.73;2.90;;;7.70;83.50;;;;;;5013697;28;20385;-77
2021/10/24 22:36:43;;;;;;;4.70;2.72;;;7.60;83.40;;;;;;4995638;28;20707;-77
2021/10/24 22:39:09;;;;;;;4.55;2.90;;;7.60;83.40;;;;;;5013460;28;20464;-77
2021/10/24 22:41:35;;;;;;;7.30;3.53;;;7.60;83.60;;;;;;4995352;28;20396;-78
2021/10/24 22:44:00;;;;;;;6.83;3.00;;;7.60;83.70;;;;;;5013441;28;20838;-77
2021/10/24 22:46:26;;;;;;;6.22;2.65;;;7.50;83.90;;;;;;5013404;28;20380;-77
2021/10/24 22:48:52;;;;;;;5.93;2.78;;;7.50;83.80;;;;;;5012579;28;20861;-76
2021/10/24 22:51:18;;;;;;;5.80;2.83;;;7.50;83.80;;;;;;5013208;28;20463;-78
2021/10/24 22:53:44;;;;;;;5.78;2.67;;;7.50;84.00;;;;;;5012783;28;20468;-77
2021/10/24 22:56:10;;;;;;;5.10;2.53;;;7.50;83.60;;;;;;5013234;28;20389;-79
2021/10/24 22:58:36;;;;;;;9.95;2.92;;;7.50;83.80;;;;;;5012561;28;20392;-78
2021/10/24 23:01:02;;;;;;;4.93;3.00;;;7.40;84.20;;;;;;5013046;28;20412;-79
2021/10/24 23:03:27;;;;;;;10.25;3.00;;;7.40;84.00;;;;;;4994988;28;20393;-77
2021/10/24 23:05:53;;;;;;;8.77;3.00;;;7.30;84.30;;;;;;5012982;28;20427;-77
2021/10/24 23:08:18;;;;;;;5.00;2.70;;;7.20;84.70;;;;;;5012618;28;20419;-77
2021/10/24 23:10:44;;;;;;;5.70;2.57;;;7.30;84.40;;;;;;5012971;28;20384;-77
2021/10/24 23:13:10;;;;;;;4.03;2.57;;;7.30;84.50;;;;;;5012425;28;20381;-77
2021/10/24 23:15:36;;;;;;;5.75;2.53;;;7.20;84.50;;;;;;5012867;28;20388;-77
2021/10/24 23:18:02;;;;;;;6.60;3.03;;;7.20;84.30;;;;;;5012926;28;20388;-77
2021/10/24 23:20:28;;;;;;;5.03;2.75;;;7.20;84.80;;;;;;5012468;28;20866;-78
2021/10/24 23:22:54;;;;;;;6.05;2.58;;;7.10;85.10;;;;;;5012641;28;20378;-77
2021/10/24 23:25:20;;;;;;;5.38;2.60;;;7.10;84.70;;;;;;5012256;28;20384;-78
2021/10/24 23:27:45;;;;;;;5.78;2.50;;;7.10;84.60;;;;;;4995363;28;20621;-78
2021/10/24 23:30:11;;;;;;;4.20;2.40;;;7.00;85.00;;;;;;5012048;28;20413;-78
2021/10/24 23:32:36;;;;;;;5.53;2.45;;;7.00;84.50;;;;;;5012589;28;20373;-76
2021/10/24 23:35:02;;;;;;;9.33;2.63;;;6.90;85.10;;;;;;5011179;28;20400;-77
2021/10/24 23:37:28;;;;;;;4.55;2.55;;;6.90;84.80;;;;;;5012405;28;20865;-77
2021/10/24 23:39:53;;;;;;;5.28;2.80;;;6.90;85.20;;;;;;5011831;28;20456;-77
2021/10/24 23:42:24;;;;;;;5.40;2.50;;;6.80;85.40;;;;;;4994716;28;20396;-76
2021/10/24 23:44:50;;;;;;;6.35;2.97;;;6.80;85.30;;;;;;5011958;28;20852;-78
2021/10/24 23:47:16;;;;;;;4.20;2.60;;;6.80;85.40;;;;;;5012040;28;20381;-76
2021/10/24 23:49:42;;;;;;;3.63;2.60;;;6.70;85.50;;;;;;5012182;28;20554;-79
2021/10/24 23:52:07;;;;;;;6.70;2.60;;;6.70;85.50;;;;;;5011902;28;20794;-78
2021/10/24 23:54:33;;;;;;;4.38;2.47;;;6.60;85.70;;;;;;5012127;28;20373;-76
2021/10/24 23:56:59;;;;;;;5.60;2.90;;;6.70;85.70;;;;;;5011791;28;20377;-78
2021/10/24 23:59:25;;;;;;;5.32;2.83;;;6.70;85.80;;;;;;5011687;28;20408;-78
